Time;durP1;ratioP1;P1;durP2;ratioP2;P2;SDS_P1;SDS_P2;PMS_P1;PMS_P2;Temp;Humidity;BMP_temperature;BMP_pressure;BME280_temperature;BME280_humidity;BME280_pressure;Samples;Min_cycle;Max_cycle;Signal;HPM_P1;HPM_P2
2022/05/06 00:02:21;;;;;;;8.67;5.10;;;10.30;99.90;;;;;;5037134;28;20452;-78
2022/05/06 00:04:48;;;;;;;8.73;6.23;;;10.20;99.90;;;;;;5036062;28;21156;-77
2022/05/06 00:07:15;;;;;;;8.97;5.10;;;10.20;99.90;;;;;;5023462;28;20984;-78
2022/05/06 00:09:44;;;;;;;8.07;5.77;;;10.20;99.90;;;;;;5034739;28;20462;-77
2022/05/06 00:12:12;;;;;;;9.60;5.67;;;10.10;99.90;;;;;;5036238;28;20457;-79
2022/05/06 00:14:39;;;;;;;8.50;5.63;;;10.10;99.90;;;;;;5019255;28;20477;-77
2022/05/06 00:17:07;;;;;;;9.50;4.73;;;10.10;99.90;;;;;;5027803;28;20456;-78
2022/05/06 00:19:35;;;;;;;10.67;5.00;;;10.10;99.90;;;;;;5070159;23;20957;-77
2022/05/06 00:22:01;;;;;;;7.83;5.37;;;10.00;99.90;;;;;;5037694;28;20448;-77
2022/05/06 00:24:28;;;;;;;7.60;5.70;;;10.10;99.90;;;;;;5037156;28;20484;-78
2022/05/06 00:26:55;;;;;;;9.30;5.50;;;10.00;99.90;;;;;;5036305;28;20459;-78
2022/05/06 00:29:22;;;;;;;8.50;6.20;;;10.00;99.90;;;;;;5036086;28;20485;-77
2022/05/06 00:31:49;;;;;;;7.70;5.67;;;10.00;99.90;;;;;;5036794;28;20457;-77
2022/05/06 00:34:17;;;;;;;8.63;6.60;;;9.90;99.90;;;;;;5036255;28;20452;-78
2022/05/06 00:36:44;;;;;;;7.23;5.17;;;9.90;99.90;;;;;;5035768;28;20454;-78
2022/05/06 00:39:11;;;;;;;8.50;6.10;;;9.90;99.90;;;;;;5037437;28;20579;-77
2022/05/06 00:41:38;;;;;;;7.33;5.50;;;9.90;99.90;;;;;;5037242;28;20462;-77
2022/05/06 00:44:06;;;;;;;9.97;5.50;;;9.80;99.90;;;;;;5041643;28;20485;-78
2022/05/06 00:46:34;;;;;;;8.60;6.00;;;9.80;99.90;;;;;;5033820;28;20489;-77
2022/05/06 00:49:01;;;;;;;9.23;6.50;;;9.80;99.90;;;;;;5034623;28;20478;-77
2022/05/06 00:51:30;;;;;;;10.33;6.47;;;9.80;99.90;;;;;;5035199;28;20542;-77
2022/05/06 00:53:57;;;;;;;8.20;6.17;;;9.80;99.90;;;;;;5036425;28;20451;-77
2022/05/06 00:56:24;;;;;;;7.90;5.47;;;9.70;99.90;;;;;;5036734;28;20452;-78
2022/05/06 00:58:52;;;;;;;8.40;6.30;;;9.70;99.90;;;;;;5037315;28;20496;-78
2022/05/06 01:01:19;;;;;;;9.83;7.03;;;9.70;99.90;;;;;;5036451;28;20455;-77
2022/05/06 01:03:46;;;;;;;7.87;6.43;;;9.60;99.90;;;;;;5036623;28;20482;-77
2022/05/06 01:06:14;;;;;;;12.10;6.53;;;9.60;99.90;;;;;;5036660;28;20503;-77
2022/05/06 01:08:43;;;;;;;11.20;6.97;;;9.60;99.90;;;;;;5036649;28;20464;-78
2022/05/06 01:11:14;;;;;;;7.60;5.60;;;9.60;99.90;;;;;;5037610;28;20454;-77
2022/05/06 01:13:43;;;;;;;7.57;5.90;;;9.60;99.90;;;;;;5037548;28;20991;-77
2022/05/06 01:16:10;;;;;;;7.40;5.80;;;9.50;99.90;;;;;;5037967;28;20463;-78
2022/05/06 01:18:36;;;;;;;9.53;6.87;;;9.50;99.90;;;;;;5037043;28;20460;-77
2022/05/06 01:21:06;;;;;;;8.47;6.50;;;9.50;99.90;;;;;;5037823;28;20550;-78
2022/05/06 01:23:34;;;;;;;9.53;6.37;;;9.40;99.90;;;;;;5037224;28;20492;-77
2022/05/06 01:26:01;;;;;;;11.07;6.27;;;9.50;99.90;;;;;;5036077;28;20823;-78
2022/05/06 01:28:30;;;;;;;15.63;7.60;;;9.40;99.90;;;;;;5036989;28;20457;-79
2022/05/06 01:31:00;;;;;;;10.10;6.87;;;9.40;99.90;;;;;;5036986;28;20458;-77
2022/05/06 01:33:29;;;;;;;10.87;6.60;;;9.40;99.90;;;;;;5036760;28;20460;-78
2022/05/06 01:35:58;;;;;;;8.63;6.37;;;9.40;99.90;;;;;;5036189;28;20485;-78
2022/05/06 01:38:30;;;;;;;9.60;8.00;;;9.30;99.90;;;;;;5036175;28;20835;-77
2022/05/06 01:41:02;;;;;;;7.90;6.40;;;9.20;99.90;;;;;;5037894;28;20528;-77
2022/05/06 01:43:37;;;;;;;8.23;6.20;;;9.20;99.90;;;;;;5036651;28;20489;-79
2022/05/06 01:46:05;;;;;;;10.77;6.37;;;9.20;99.90;;;;;;5037893;28;21252;-78
2022/05/06 01:48:33;;;;;;;8.77;6.37;;;9.20;99.90;;;;;;5039064;28;20461;-78
2022/05/06 01:51:01;;;;;;;11.10;6.20;;;9.20;99.90;;;;;;5038736;28;20962;-78
2022/05/06 01:53:28;;;;;;;8.23;7.00;;;9.10;99.90;;;;;;5037217;28;20446;-78
2022/05/06 01:55:54;;;;;;;9.77;6.47;;;9.10;99.90;;;;;;5035978;28;20842;-78
2022/05/06 01:58:23;;;;;;;9.00;6.30;;;9.10;99.90;;;;;;5034890;28;20455;-77
2022/05/06 02:00:49;;;;;;;7.90;6.20;;;9.20;99.90;;;;;;5036965;28;20547;-78
2022/05/06 02:05:57;;;;;;;12.13;6.60;;;9.00;99.90;;;;;;5005850;28;20837;-78
2022/05/06 02:08:24;;;;;;;8.80;6.80;;;9.10;99.90;;;;;;5037846;28;20456;-78
2022/05/06 02:10:51;;;;;;;8.07;6.27;;;9.00;99.90;;;;;;5037838;28;20850;-78
2022/05/06 02:13:19;;;;;;;8.37;6.17;;;9.00;99.90;;;;;;5037978;28;20482;-77
2022/05/06 02:15:47;;;;;;;9.20;6.83;;;9.00;99.90;;;;;;5037054;28;20957;-78
2022/05/06 02:18:14;;;;;;;10.43;7.03;;;9.00;99.90;;;;;;5037993;28;20453;-78
2022/05/06 02:20:41;;;;;;;9.03;6.40;;;9.00;99.90;;;;;;5037139;28;20480;-78
2022/05/06 02:23:08;;;;;;;11.33;7.40;;;8.90;99.90;;;;;;5038364;28;20490;-77
2022/05/06 02:25:36;;;;;;;8.50;6.33;;;9.00;99.90;;;;;;5038034;28;20462;-78
2022/05/06 02:28:03;;;;;;;9.73;6.70;;;8.90;99.90;;;;;;5038134;28;20477;-78
2022/05/06 02:33:15;;;;;;;9.47;6.50;;;8.90;99.90;;;;;;5039102;28;20475;-78
2022/05/06 02:35:43;;;;;;;9.50;7.80;;;8.90;99.90;;;;;;5039214;28;21024;-78
2022/05/06 02:38:11;;;;;;;8.70;6.90;;;8.90;99.90;;;;;;5038551;28;20454;-78
2022/05/06 02:40:39;;;;;;;7.93;6.90;;;8.80;99.90;;;;;;5038523;28;20470;-78
2022/05/06 02:43:07;;;;;;;8.20;5.70;;;8.80;99.90;;;;;;5038861;28;20451;-79
2022/05/06 02:45:34;;;;;;;8.70;6.97;;;8.80;99.90;;;;;;5038382;28;20516;-78
2022/05/06 02:48:01;;;;;;;9.53;6.20;;;8.80;99.90;;;;;;5037033;28;20456;-78
2022/05/06 02:50:30;;;;;;;10.13;6.13;;;8.80;99.90;;;;;;5036344;28;20485;-78
2022/05/06 02:52:56;;;;;;;10.53;6.73;;;8.80;99.90;;;;;;5036405;28;20456;-78
2022/05/06 02:55:24;;;;;;;8.40;5.97;;;8.70;99.90;;;;;;5035319;28;20447;-78
2022/05/06 02:57:51;;;;;;;13.67;6.00;;;8.70;99.90;;;;;;5036044;28;20454;-78
2022/05/06 03:00:18;;;;;;;12.90;6.63;;;8.70;99.90;;;;;;5035192;28;20477;-78
2022/05/06 03:02:45;;;;;;;9.27;6.50;;;8.60;99.90;;;;;;5036491;28;20458;-77
2022/05/06 03:05:12;;;;;;;9.07;5.80;;;8.60;99.90;;;;;;5034993;28;20484;-78
2022/05/06 03:07:41;;;;;;;10.50;6.33;;;8.60;99.90;;;;;;5036047;28;20484;-78
2022/05/06 03:10:10;;;;;;;8.60;6.53;;;8.60;99.90;;;;;;5035913;28;21048;-78
2022/05/06 03:12:37;;;;;;;10.50;7.33;;;8.60;99.90;;;;;;5036153;28;20461;-78
2022/05/06 03:15:04;;;;;;;8.40;6.70;;;8.60;99.90;;;;;;5037392;28;20981;-78
2022/05/06 03:17:32;;;;;;;8.63;6.70;;;8.50;99.90;;;;;;5034512;28;20500;-78
2022/05/06 03:20:00;;;;;;;13.97;6.00;;;8.50;99.90;;;;;;5034197;28;20481;-78
2022/05/06 03:22:28;;;;;;;11.73;7.20;;;8.50;99.90;;;;;;5040544;28;20481;-80
2022/05/06 03:24:56;;;;;;;8.50;6.37;;;8.40;99.90;;;;;;5045596;28;21046;-79
2022/05/06 03:30:08;;;;;;;8.80;7.53;;;8.40;99.90;;;;;;5044449;28;20453;-80
2022/05/06 03:32:35;;;;;;;9.10;7.23;;;8.40;99.90;;;;;;5043568;28;20457;-80
2022/05/06 03:35:02;;;;;;;9.83;6.50;;;8.40;99.90;;;;;;5043869;28;20459;-80
2022/05/06 03:37:29;;;;;;;11.30;6.97;;;8.40;99.90;;;;;;5041927;28;20456;-79
2022/05/06 03:39:57;;;;;;;8.80;6.83;;;8.30;99.90;;;;;;5037051;28;20502;-79
2022/05/06 03:42:24;;;;;;;8.00;6.37;;;8.30;99.90;;;;;;5043955;28;20460;-79
2022/05/06 03:44:51;;;;;;;8.90;6.77;;;8.30;99.90;;;;;;5039821;28;20477;-80
2022/05/06 03:47:18;;;;;;;9.77;7.40;;;8.30;99.90;;;;;;5032517;28;20454;-78
2022/05/06 03:51:20;;;;;;;8.43;7.10;;;8.20;99.90;;;;;;5028439;28;20499;-78
2022/05/06 03:52:31;;;;;;;9.27;6.57;;;8.30;99.90;;;;;;5038196;28;20443;-79
2022/05/06 03:54:59;;;;;;;8.53;6.63;;;8.30;99.90;;;;;;5046777;28;20451;-79
2022/05/06 03:57:26;;;;;;;11.13;7.00;;;8.30;99.90;;;;;;5043512;28;20281;-79
2022/05/06 03:59:52;;;;;;;8.97;6.30;;;8.20;99.90;;;;;;5037355;28;20479;-78
2022/05/06 04:02:19;;;;;;;12.37;8.00;;;8.20;99.90;;;;;;5035228;28;20886;-79
2022/05/06 04:04:46;;;;;;;9.20;6.73;;;8.20;99.90;;;;;;5028078;28;20546;-79
2022/05/06 04:07:14;;;;;;;10.87;7.40;;;8.20;99.90;;;;;;5036302;28;20465;-79
2022/05/06 04:09:41;;;;;;;9.17;6.80;;;8.20;99.90;;;;;;5052317;28;20504;-78
2022/05/06 04:12:11;;;;;;;8.13;6.20;;;8.30;99.90;;;;;;5035804;28;20484;-78
2022/05/06 04:14:38;;;;;;;10.27;6.80;;;8.30;99.90;;;;;;5040864;28;20441;-78
2022/05/06 04:17:05;;;;;;;12.60;7.93;;;8.30;99.90;;;;;;5036589;28;20453;-78
2022/05/06 04:19:32;;;;;;;10.00;6.87;;;8.30;99.90;;;;;;5032466;28;20491;-77
2022/05/06 04:24:43;;;;;;;10.97;6.93;;;8.30;99.90;;;;;;5046718;28;20489;-79
2022/05/06 04:27:11;;;;;;;8.67;7.03;;;8.20;99.90;;;;;;5044800;28;20454;-79
2022/05/06 04:29:40;;;;;;;9.80;7.40;;;8.30;99.90;;;;;;5046084;28;20481;-81
2022/05/06 04:32:09;;;;;;;10.90;8.57;;;8.30;99.90;;;;;;5046730;28;20480;-78
2022/05/06 04:34:36;;;;;;;12.33;7.80;;;8.30;99.90;;;;;;5045898;28;20476;-81
2022/05/06 04:37:07;;;;;;;8.47;7.03;;;8.40;99.90;;;;;;5039843;28;20958;-79
2022/05/06 04:39:34;;;;;;;12.70;7.53;;;8.40;99.90;;;;;;5042728;28;20456;-82
2022/05/06 04:42:02;;;;;;;9.97;7.73;;;8.40;99.90;;;;;;5037947;28;20454;-82
2022/05/06 04:44:30;;;;;;;9.27;7.27;;;8.50;99.90;;;;;;5036427;28;20494;-80
2022/05/06 04:46:57;;;;;;;13.60;8.20;;;8.60;99.90;;;;;;5036453;28;20453;-82
2022/05/06 04:49:24;;;;;;;14.33;8.10;;;8.60;99.90;;;;;;5036098;28;20479;-82
2022/05/06 04:51:51;;;;;;;9.60;7.33;;;8.70;99.90;;;;;;5036937;28;20993;-81
2022/05/06 04:54:18;;;;;;;12.87;8.57;;;8.70;99.90;;;;;;5036461;28;20520;-81
2022/05/06 04:56:45;;;;;;;12.00;8.00;;;8.80;99.90;;;;;;5036971;28;20520;-81
2022/05/06 04:59:12;;;;;;;11.53;7.70;;;8.80;99.90;;;;;;5037065;28;20481;-81
2022/05/06 05:01:40;;;;;;;11.83;7.77;;;8.90;99.90;;;;;;5036962;28;20466;-81
2022/05/06 05:04:07;;;;;;;9.77;7.77;;;9.00;99.90;;;;;;5037276;28;20560;-81
2022/05/06 05:06:34;;;;;;;9.50;8.10;;;9.00;99.90;;;;;;5036206;28;20514;-81
2022/05/06 05:09:01;;;;;;;11.83;8.33;;;9.10;99.90;;;;;;5016908;28;20474;-81
2022/05/06 05:11:29;;;;;;;11.60;8.93;;;9.20;99.90;;;;;;5016801;28;20452;-81
2022/05/06 05:14:06;;;;;;;11.77;8.30;;;9.30;99.90;;;;;;5016885;28;20448;-78
2022/05/06 05:16:33;;;;;;;12.50;8.20;;;9.40;99.90;;;;;;5025588;28;20462;-80
2022/05/06 05:19:01;;;;;;;14.20;8.80;;;9.50;99.90;;;;;;5030608;28;20482;-81
2022/05/06 05:21:28;;;;;;;10.43;7.90;;;9.50;99.90;;;;;;5033582;28;20454;-81
2022/05/06 05:23:58;;;;;;;12.90;8.23;;;9.60;99.90;;;;;;5040585;28;20553;-80
2022/05/06 05:26:25;;;;;;;9.87;7.00;;;9.70;99.90;;;;;;5040215;28;20516;-81
2022/05/06 05:28:52;;;;;;;16.43;8.50;;;9.80;99.90;;;;;;5038881;28;20471;-79
2022/05/06 05:31:20;;;;;;;20.20;9.80;;;9.80;99.90;;;;;;5039402;28;20472;-82
2022/05/06 05:33:48;;;;;;;11.20;8.20;;;9.90;99.90;;;;;;5031883;28;20455;-82
2022/05/06 05:36:16;;;;;;;13.60;9.07;;;10.00;99.90;;;;;;5038744;28;20446;-82
2022/05/06 05:38:43;;;;;;;12.07;7.90;;;10.10;99.90;;;;;;5039065;28;20468;-81
2022/05/06 05:41:11;;;;;;;12.33;8.50;;;10.20;99.90;;;;;;5042802;28;20519;-81
2022/05/06 05:49:07;;;;;;;13.30;9.20;;;10.50;99.90;;;;;;5026049;28;20452;-80
2022/05/06 05:51:35;;;;;;;13.30;9.13;;;10.60;99.90;;;;;;5030049;28;20463;-82
2022/05/06 05:54:02;;;;;;;10.50;7.70;;;10.70;99.90;;;;;;5038610;28;20445;-83
2022/05/06 05:56:29;;;;;;;13.87;8.27;;;10.80;99.90;;;;;;5041361;28;20539;-79
2022/05/06 05:58:56;;;;;;;12.20;8.73;;;10.90;99.90;;;;;;5041038;28;20559;-81
2022/05/06 06:01:23;;;;;;;13.97;8.20;;;11.00;99.90;;;;;;5031161;28;20486;-83
2022/05/06 06:03:49;;;;;;;12.50;10.03;;;11.20;99.90;;;;;;5019858;28;20452;-82
2022/05/06 06:06:16;;;;;;;12.97;8.80;;;11.30;99.90;;;;;;5032582;28;20481;-83
2022/05/06 06:08:47;;;;;;;19.60;11.03;;;11.40;99.90;;;;;;5029489;28;20476;-81
2022/05/06 06:11:14;;;;;;;17.73;9.70;;;11.50;99.90;;;;;;5030312;28;20449;-81
2022/05/06 06:13:41;;;;;;;21.17;11.07;;;11.70;99.90;;;;;;5030106;28;20475;-80
2022/05/06 06:16:07;;;;;;;13.77;9.47;;;11.90;99.90;;;;;;5028813;28;20450;-80
2022/05/06 06:18:37;;;;;;;15.43;9.17;;;12.10;99.90;;;;;;5030699;28;20551;-81
2022/05/06 06:21:04;;;;;;;17.17;10.87;;;12.20;99.90;;;;;;5026852;28;20526;-80
2022/05/06 06:23:31;;;;;;;21.00;10.30;;;12.30;99.90;;;;;;5021889;28;20477;-82
2022/05/06 06:25:59;;;;;;;19.60;11.23;;;12.50;99.90;;;;;;5030710;28;20488;-82
2022/05/06 06:28:26;;;;;;;17.33;11.03;;;12.60;99.90;;;;;;5040302;28;20482;-81
2022/05/06 06:30:53;;;;;;;17.33;9.70;;;12.70;99.90;;;;;;5030980;28;20545;-82
2022/05/06 06:33:20;;;;;;;16.63;10.73;;;12.90;99.90;;;;;;5022940;28;20546;-81
2022/05/06 06:35:47;;;;;;;15.30;10.43;;;13.10;99.90;;;;;;5017003;28;20988;-80
2022/05/06 06:38:14;;;;;;;17.00;10.50;;;13.20;99.90;;;;;;5029698;28;20511;-81
2022/05/06 06:40:40;;;;;;;15.83;10.30;;;13.30;99.90;;;;;;5037721;28;20477;-78
2022/05/06 06:43:09;;;;;;;15.80;9.63;;;13.40;99.90;;;;;;5023178;28;20448;-79
2022/05/06 06:45:37;;;;;;;14.67;9.97;;;13.50;99.90;;;;;;5018412;28;20552;-78
2022/05/06 06:48:05;;;;;;;16.17;9.93;;;13.60;99.90;;;;;;5031283;28;20516;-78
2022/05/06 06:50:48;;;;;;;15.67;9.67;;;13.70;99.90;;;;;;5035425;28;20512;-80
2022/05/06 06:53:15;;;;;;;13.33;8.80;;;13.90;99.90;;;;;;5029127;28;20454;-79
2022/05/06 06:55:42;;;;;;;12.90;9.53;;;13.90;99.90;;;;;;5034726;28;20452;-80
2022/05/06 06:58:10;;;;;;;14.67;9.63;;;14.00;99.90;;;;;;5034431;28;20507;-77
2022/05/06 07:00:37;;;;;;;13.37;9.20;;;14.10;99.90;;;;;;5035515;28;20508;-78
2022/05/06 07:03:04;;;;;;;13.97;9.00;;;14.20;99.90;;;;;;5031160;28;20458;-79
2022/05/06 07:05:31;;;;;;;11.27;7.80;;;14.30;99.90;;;;;;5042605;28;20483;-78
2022/05/06 07:13:31;;;;;;;13.70;8.80;;;14.60;99.90;;;;;;5031747;28;20981;-80
2022/05/06 07:15:59;;;;;;;12.37;8.10;;;14.70;99.90;;;;;;5027083;28;20482;-78
2022/05/06 07:18:26;;;;;;;13.07;8.93;;;14.80;99.90;;;;;;5025865;28;20489;-78
2022/05/06 07:20:57;;;;;;;12.83;8.73;;;14.90;99.90;;;;;;5032587;28;20485;-79
2022/05/06 07:23:24;;;;;;;13.40;7.93;;;15.10;99.90;;;;;;5026131;28;20454;-81
2022/05/06 07:25:50;;;;;;;13.23;8.87;;;15.20;99.90;;;;;;5034759;28;20522;-81
2022/05/06 07:28:19;;;;;;;16.70;8.27;;;15.30;99.90;;;;;;5031757;28;20461;-77
2022/05/06 07:30:47;;;;;;;10.57;7.43;;;15.40;99.90;;;;;;5074597;22;20498;-79
2022/05/06 07:33:14;;;;;;;18.33;8.13;;;15.50;99.90;;;;;;5017123;28;20489;-79
2022/05/06 07:35:40;;;;;;;11.30;8.37;;;15.70;99.90;;;;;;5036219;28;20448;-79
2022/05/06 07:38:07;;;;;;;9.63;7.27;;;15.80;99.90;;;;;;5024625;28;20492;-79
2022/05/06 07:40:34;;;;;;;13.33;7.70;;;16.00;99.90;;;;;;5034548;28;20847;-79
2022/05/06 07:43:01;;;;;;;14.17;7.80;;;16.20;99.90;;;;;;5042844;28;20540;-78
2022/05/06 07:45:28;;;;;;;11.53;7.10;;;16.30;99.90;;;;;;5043290;28;20505;-78
2022/05/06 07:47:56;;;;;;;13.10;8.00;;;16.50;99.90;;;;;;5026838;28;20452;-78
2022/05/06 07:50:22;;;;;;;11.73;7.17;;;16.60;99.90;;;;;;5022570;28;20480;-79
2022/05/06 07:52:50;;;;;;;15.10;7.57;;;16.80;99.90;;;;;;5011581;28;20461;-79
2022/05/06 07:55:19;;;;;;;12.30;8.40;;;17.10;99.90;;;;;;5040892;28;20452;-78
2022/05/06 07:57:46;;;;;;;13.13;8.70;;;17.50;99.90;;;;;;5029396;28;20480;-79
2022/05/06 08:00:14;;;;;;;10.77;7.43;;;17.90;99.90;;;;;;5022380;28;20476;-79
2022/05/06 08:05:28;;;;;;;10.17;7.20;;;19.80;99.90;;;;;;5024079;28;20530;-78
2022/05/06 08:07:56;;;;;;;11.70;7.20;;;20.50;99.90;;;;;;5022887;28;20453;-79
2022/05/06 08:10:23;;;;;;;12.50;7.10;;;21.10;99.90;;;;;;5024343;28;20578;-79
2022/05/06 08:12:50;;;;;;;8.77;6.13;;;21.70;99.90;;;;;;5025616;28;20457;-79
2022/05/06 08:15:17;;;;;;;9.70;6.10;;;23.10;99.90;;;;;;5025995;28;20449;-80
2022/05/06 08:17:44;;;;;;;8.40;6.13;;;24.60;99.90;;;;;;5025075;28;20450;-80
2022/05/06 08:20:12;;;;;;;7.20;5.87;;;25.90;99.90;;;;;;5025803;28;20469;-80
2022/05/06 08:22:40;;;;;;;8.37;5.63;;;27.00;99.90;;;;;;5024706;28;20458;-79
2022/05/06 08:25:09;;;;;;;6.30;5.53;;;27.80;94.70;;;;;;5025292;28;20450;-79
2022/05/06 08:27:40;;;;;;;7.87;6.50;;;27.90;92.10;;;;;;5024668;28;20454;-79
2022/05/06 08:30:08;;;;;;;8.63;7.00;;;27.50;86.20;;;;;;5024465;28;20453;-78
2022/05/06 08:32:35;;;;;;;9.77;6.57;;;27.70;82.50;;;;;;5024788;28;20552;-79
2022/05/06 08:35:03;;;;;;;7.10;5.27;;;27.70;81.80;;;;;;5025586;28;20448;-79
2022/05/06 08:37:30;;;;;;;7.50;5.90;;;29.00;82.20;;;;;;5023154;28;20456;-79
2022/05/06 08:39:58;;;;;;;7.50;5.33;;;29.80;71.40;;;;;;5021584;28;20453;-78
2022/05/06 08:42:25;;;;;;;8.27;5.77;;;30.70;70.20;;;;;;5020760;28;20462;-77
2022/05/06 08:53:07;;;;;;;8.87;5.63;;;33.00;59.70;;;;;;5024394;28;20827;-78
2022/05/06 08:55:35;;;;;;;8.73;6.93;;;33.60;57.70;;;;;;5028311;28;20442;-79
2022/05/06 08:58:02;;;;;;;11.80;7.07;;;33.10;56.20;;;;;;5029053;28;20819;-78
2022/05/06 09:00:29;;;;;;;6.87;5.77;;;33.50;55.90;;;;;;5028207;28;20465;-79
2022/05/06 09:02:56;;;;;;;8.27;5.87;;;33.30;56.20;;;;;;5029379;28;20457;-78
2022/05/06 09:05:23;;;;;;;6.87;6.17;;;34.00;56.00;;;;;;5028431;28;20446;-79
2022/05/06 09:07:57;;;;;;;7.63;6.60;;;34.20;56.70;;;;;;5028706;28;20449;-79
2022/05/06 09:10:24;;;;;;;6.80;5.63;;;34.80;56.40;;;;;;5028452;28;20495;-79
2022/05/06 09:12:56;;;;;;;8.90;7.30;;;35.10;56.50;;;;;;5026794;28;20635;-79
2022/05/06 09:18:08;;;;;;;7.63;6.17;;;35.10;54.30;;;;;;5028227;28;20480;-79
2022/05/06 09:20:35;;;;;;;10.30;8.97;;;36.00;54.20;;;;;;5026903;28;20469;-80
2022/05/06 09:23:20;;;;;;;9.37;7.53;;;36.00;51.80;;;;;;5024979;28;20533;-78
2022/05/06 09:25:49;;;;;;;9.57;8.30;;;35.40;52.40;;;;;;5025400;28;20532;-78
2022/05/06 09:28:24;;;;;;;9.00;8.10;;;35.10;48.80;;;;;;5026893;28;20496;-78
2022/05/06 09:31:01;;;;;;;8.97;8.00;;;35.60;50.10;;;;;;5026231;28;20481;-79
2022/05/06 09:33:29;;;;;;;10.90;9.80;;;35.70;49.50;;;;;;5025427;28;20465;-78
2022/05/06 09:35:56;;;;;;;10.57;9.47;;;35.90;49.10;;;;;;5026342;28;20449;-79
2022/05/06 09:38:24;;;;;;;11.37;10.33;;;35.80;50.10;;;;;;5026885;28;20457;-79
2022/05/06 09:40:52;;;;;;;10.87;9.77;;;35.50;49.00;;;;;;5025533;28;20516;-79
2022/05/06 09:43:20;;;;;;;14.50;10.43;;;33.80;49.80;;;;;;5025455;28;20445;-78
2022/05/06 09:45:48;;;;;;;11.67;10.57;;;32.10;54.90;;;;;;5025761;28;20474;-80
2022/05/06 09:48:16;;;;;;;11.93;9.50;;;33.50;52.50;;;;;;5025321;28;20460;-81
2022/05/06 09:50:44;;;;;;;10.07;9.17;;;35.00;51.90;;;;;;5022226;28;21015;-80
2022/05/06 09:53:12;;;;;;;13.10;11.80;;;34.10;50.70;;;;;;5021545;28;20454;-80
2022/05/06 09:55:41;;;;;;;13.20;11.70;;;32.30;51.30;;;;;;5021818;28;20877;-78
2022/05/06 09:58:08;;;;;;;16.33;12.70;;;30.50;52.70;;;;;;5009605;28;20450;-79
2022/05/06 10:00:38;;;;;;;12.27;11.00;;;28.10;54.00;;;;;;5001240;28;20501;-80
2022/05/06 10:03:07;;;;;;;12.30;11.00;;;27.50;58.20;;;;;;5001329;28;20537;-78
2022/05/06 10:05:36;;;;;;;12.00;10.40;;;29.50;57.30;;;;;;5001129;28;20462;-79
2022/05/06 10:08:06;;;;;;;13.50;11.60;;;30.20;54.60;;;;;;5020118;28;20467;-78
2022/05/06 10:10:38;;;;;;;13.93;10.57;;;29.90;53.90;;;;;;5020750;28;20556;-79
2022/05/06 10:13:10;;;;;;;11.47;8.93;;;30.80;56.10;;;;;;5021099;28;20457;-79
2022/05/06 10:15:37;;;;;;;13.47;11.80;;;31.90;55.60;;;;;;5021885;28;20509;-79
2022/05/06 10:18:07;;;;;;;13.07;11.77;;;30.60;52.80;;;;;;5021559;28;20450;-78
2022/05/06 10:20:50;;;;;;;14.17;12.83;;;31.60;52.60;;;;;;5021740;28;21104;-80
2022/05/06 10:23:18;;;;;;;12.40;10.63;;;33.80;53.10;;;;;;5018301;28;20885;-78
2022/05/06 10:25:52;;;;;;;13.10;11.77;;;35.80;50.70;;;;;;5020894;28;20450;-78
2022/05/06 10:34:32;;;;;;;9.33;8.27;;;35.80;48.50;;;;;;5017768;28;20463;-78
2022/05/06 10:37:02;;;;;;;9.77;8.80;;;32.90;48.30;;;;;;5027667;28;20438;-79
2022/05/06 10:39:30;;;;;;;11.80;9.73;;;31.00;49.90;;;;;;5023566;28;20480;-78
2022/05/06 10:42:07;;;;;;;11.40;9.40;;;29.40;51.30;;;;;;5025286;28;20469;-79
2022/05/06 10:44:41;;;;;;;12.03;10.27;;;28.20;52.70;;;;;;5018854;28;20459;-78
2022/05/06 10:47:46;;;;;;;10.67;8.40;;;27.50;53.50;;;;;;5030031;28;20495;-78
2022/05/06 10:50:20;;;;;;;10.97;8.90;;;28.20;54.30;;;;;;5023558;28;20473;-79
2022/05/06 10:52:48;;;;;;;12.30;9.03;;;30.40;55.10;;;;;;5018466;28;20460;-78
2022/05/06 10:55:23;;;;;;;12.50;9.27;;;31.10;52.30;;;;;;5018738;28;20464;-78
2022/05/06 10:57:54;;;;;;;11.03;9.70;;;30.40;53.70;;;;;;5011657;28;20438;-79
2022/05/06 11:00:22;;;;;;;9.77;8.77;;;29.80;53.20;;;;;;5000440;28;20541;-79
2022/05/06 11:02:49;;;;;;;11.93;10.30;;;28.90;54.30;;;;;;5016878;28;20443;-78
2022/05/06 11:05:20;;;;;;;10.23;9.10;;;28.50;54.80;;;;;;5018246;28;20836;-78
2022/05/06 11:07:49;;;;;;;13.50;10.80;;;28.20;56.00;;;;;;5018457;28;20493;-77
2022/05/06 11:10:17;;;;;;;10.67;9.53;;;27.60;54.10;;;;;;5017133;28;20473;-78
2022/05/06 11:12:45;;;;;;;8.07;7.27;;;27.70;56.10;;;;;;5018378;28;20449;-78
2022/05/06 11:15:16;;;;;;;10.60;9.50;;;28.30;56.40;;;;;;5018203;28;20454;-79
2022/05/06 11:17:44;;;;;;;10.40;9.30;;;28.20;54.70;;;;;;5016811;28;20540;-78
2022/05/06 11:20:21;;;;;;;10.90;8.17;;;28.80;54.90;;;;;;5017388;28;20477;-78
2022/05/06 11:22:52;;;;;;;7.07;6.37;;;31.50;56.40;;;;;;5018502;28;20454;-79
2022/05/06 11:25:21;;;;;;;7.37;6.43;;;34.10;53.00;;;;;;5018429;28;20453;-79
2022/05/06 11:27:49;;;;;;;10.10;7.00;;;36.70;50.70;;;;;;5017700;28;20492;-77
2022/05/06 11:30:20;;;;;;;10.10;9.10;;;38.60;48.70;;;;;;5013365;28;20477;-77
2022/05/06 11:32:51;;;;;;;6.63;5.93;;;37.50;47.20;;;;;;5014086;28;20450;-77
2022/05/06 11:35:27;;;;;;;8.40;6.50;;;38.80;48.20;;;;;;5013836;28;20481;-77
2022/05/06 11:37:56;;;;;;;10.43;9.33;;;39.50;45.80;;;;;;5009338;28;20450;-76
2022/05/06 11:40:37;;;;;;;7.90;7.20;;;40.90;44.80;;;;;;4993425;28;20474;-77
2022/05/06 11:43:09;;;;;;;10.70;8.47;;;40.90;44.80;;;;;;4993830;28;20854;-77
2022/05/06 11:48:22;;;;;;;7.73;6.93;;;40.50;43.90;;;;;;4994349;28;20422;-76
2022/05/06 11:51:03;;;;;;;8.30;7.50;;;42.10;44.10;;;;;;4995117;28;20474;-78
2022/05/06 11:53:31;;;;;;;8.57;7.73;;;42.10;43.00;;;;;;5015357;28;20460;-78
2022/05/06 11:56:01;;;;;;;6.90;6.20;;;43.20;43.80;;;;;;5013461;28;20462;-77
2022/05/06 11:58:29;;;;;;;10.10;9.20;;;41.90;42.00;;;;;;5011053;28;20540;-76
2022/05/06 12:00:55;;;;;;;8.77;7.83;;;38.80;40.80;;;;;;5008305;28;20859;-78
2022/05/06 12:03:24;;;;;;;7.57;6.87;;;37.50;43.60;;;;;;5011295;28;20456;-78
2022/05/06 12:06:07;;;;;;;8.40;6.80;;;38.80;43.90;;;;;;5022966;28;20472;-75
2022/05/06 12:08:35;;;;;;;9.73;8.77;;;39.80;44.10;;;;;;5009566;28;20461;-78
2022/05/06 12:11:07;;;;;;;11.50;9.70;;;40.40;41.70;;;;;;5006669;28;20854;-75
2022/05/06 12:13:38;;;;;;;9.03;8.23;;;39.70;41.50;;;;;;5002360;28;20462;-77
2022/05/06 12:16:07;;;;;;;9.00;8.10;;;39.20;40.90;;;;;;5020744;28;20969;-79
2022/05/06 12:18:35;;;;;;;7.87;6.40;;;39.40;42.00;;;;;;5016962;28;20481;-78
2022/05/06 12:21:16;;;;;;;11.00;8.10;;;40.10;41.40;;;;;;5007889;28;20485;-78
2022/05/06 12:23:51;;;;;;;6.33;5.73;;;39.10;39.90;;;;;;5018796;28;20487;-79
2022/05/06 12:26:27;;;;;;;6.90;6.20;;;39.70;40.70;;;;;;5027057;28;20444;-79
2022/05/06 12:28:54;;;;;;;14.23;9.97;;;40.90;43.40;;;;;;5021406;28;20464;-78
2022/05/06 12:31:28;;;;;;;11.43;10.33;;;39.90;40.00;;;;;;5009497;28;20496;-78
2022/05/06 12:34:01;;;;;;;8.60;7.80;;;40.30;40.10;;;;;;5005324;28;20831;-81
2022/05/06 12:36:32;;;;;;;8.50;6.93;;;41.20;39.90;;;;;;5006977;28;20456;-82
2022/05/06 12:38:59;;;;;;;8.60;7.23;;;41.80;39.90;;;;;;5003265;28;20461;-81
2022/05/06 12:41:27;;;;;;;10.70;7.00;;;42.20;40.00;;;;;;5009733;28;21036;-79
2022/05/06 12:44:17;;;;;;;7.83;7.13;;;40.90;39.60;;;;;;5004231;28;21064;-79
2022/05/06 12:46:56;;;;;;;7.77;6.77;;;39.00;40.20;;;;;;5011559;28;20513;-79
2022/05/06 12:49:39;;;;;;;8.00;7.30;;;39.10;40.00;;;;;;5015703;28;20465;-80
2022/05/06 12:52:09;;;;;;;8.23;7.47;;;38.80;39.00;;;;;;5017062;28;20461;-81
2022/05/06 12:54:37;;;;;;;10.10;8.57;;;39.90;40.40;;;;;;5015720;28;20469;-80
2022/05/06 12:57:05;;;;;;;12.40;9.80;;;38.70;39.90;;;;;;5017049;28;20443;-80
2022/05/06 12:59:32;;;;;;;10.33;8.20;;;36.50;40.80;;;;;;5006628;28;20453;-82
2022/05/06 13:01:59;;;;;;;10.07;8.93;;;34.90;42.80;;;;;;5002684;28;20469;-80
2022/05/06 13:04:26;;;;;;;10.90;9.80;;;33.30;44.00;;;;;;5017403;28;20453;-82
2022/05/06 13:06:53;;;;;;;8.33;7.30;;;32.20;45.50;;;;;;5011565;28;20490;-81
2022/05/06 13:09:21;;;;;;;14.40;10.30;;;32.60;46.40;;;;;;5028340;28;21007;-80
2022/05/06 13:11:48;;;;;;;11.10;8.77;;;34.30;46.60;;;;;;5032693;28;20465;-79
2022/05/06 13:14:14;;;;;;;9.57;8.57;;;35.70;44.70;;;;;;5035742;28;21068;-79
2022/05/06 13:16:41;;;;;;;10.80;8.93;;;35.70;42.90;;;;;;5036184;28;20527;-79
2022/05/06 13:19:09;;;;;;;10.73;9.30;;;34.60;43.90;;;;;;5023547;28;20472;-79
2022/05/06 13:21:37;;;;;;;10.17;8.20;;;32.80;45.50;;;;;;5019153;28;20470;-80
2022/05/06 13:24:04;;;;;;;11.50;8.20;;;32.70;46.70;;;;;;5019352;28;20457;-79
2022/05/06 13:26:33;;;;;;;11.07;8.73;;;31.90;46.70;;;;;;5019875;28;20461;-79
2022/05/06 13:28:59;;;;;;;8.73;7.93;;;33.60;46.80;;;;;;5018240;28;20545;-80
2022/05/06 13:31:26;;;;;;;9.27;7.60;;;35.10;45.90;;;;;;5018641;28;20533;-80
2022/05/06 13:33:53;;;;;;;10.60;9.60;;;36.80;44.90;;;;;;5019337;28;20457;-79
2022/05/06 13:36:20;;;;;;;10.27;8.50;;;37.40;42.20;;;;;;5018774;28;20492;-80